createdAt,value
2023-05-14T00:00:28.450Z,75.56
2023-05-14T00:01:28.462Z,78.35
2023-05-14T00:02:28.680Z,76.08
2023-05-14T00:03:28.513Z,74.83
2023-05-14T00:04:28.549Z,77.13
2023-05-14T00:05:28.521Z,76.86
2023-05-14T00:06:29.083Z,75.18
2023-05-14T00:07:28.573Z,76.15
2023-05-14T00:08:28.560Z,77.14
2023-05-14T00:09:28.697Z,77.93
2023-05-14T00:10:28.628Z,76.60
2023-05-14T00:11:28.612Z,73.62
2023-05-14T00:12:28.631Z,74.57
2023-05-14T00:13:28.656Z,75.29
2023-05-14T00:14:29.108Z,76.00
2023-05-14T00:15:30.028Z,75.96
2023-05-14T00:16:28.796Z,76.77
2023-05-14T00:17:28.784Z,76.68
2023-05-14T00:18:29.692Z,76.90
2023-05-14T00:19:28.687Z,77.07
2023-05-14T00:20:30.692Z,77.42
2023-05-14T00:21:28.696Z,77.66
2023-05-14T00:22:28.682Z,76.58
2023-05-14T00:23:28.676Z,78.91
2023-05-14T00:24:29.583Z,76.25
2023-05-14T00:25:29.122Z,75.43
2023-05-14T00:26:28.656Z,80.17
2023-05-14T00:27:28.662Z,77.27
2023-05-14T00:28:28.612Z,77.68
2023-05-14T00:29:28.614Z,75.27
2023-05-14T00:30:29.598Z,75.53
2023-05-14T00:31:28.638Z,73.51
2023-05-14T00:32:29.151Z,76.48
2023-05-14T00:33:28.598Z,75.82
2023-05-14T00:34:28.579Z,76.90
2023-05-14T00:35:28.610Z,76.86
2023-05-14T00:36:28.586Z,77.00
2023-05-14T00:37:28.573Z,77.23
2023-05-14T00:38:28.587Z,77.11
2023-05-14T00:39:28.572Z,75.64
2023-05-14T00:40:28.569Z,76.35
2023-05-14T00:41:28.656Z,74.20
2023-05-14T00:42:28.537Z,76.88
2023-05-14T00:43:28.546Z,73.47
2023-05-14T00:44:28.534Z,74.00
2023-05-14T00:45:28.553Z,75.03
2023-05-14T00:46:28.593Z,74.73
2023-05-14T00:47:28.635Z,74.00
2023-05-14T00:48:28.568Z,76.21
2023-05-14T00:49:28.569Z,73.81
2023-05-14T00:50:28.613Z,75.99
2023-05-14T00:51:28.593Z,73.41
2023-05-14T00:52:28.600Z,73.80
2023-05-14T00:53:28.625Z,72.90
2023-05-14T00:54:28.642Z,74.26
2023-05-14T00:55:28.645Z,72.41
2023-05-14T00:56:28.677Z,77.09
2023-05-14T00:57:28.671Z,74.46
2023-05-14T00:58:28.701Z,75.07
2023-05-14T00:59:28.698Z,73.20
2023-05-14T01:00:29.109Z,76.63
2023-05-14T01:01:28.846Z,76.48
2023-05-14T01:02:28.792Z,73.03
2023-05-14T01:03:28.823Z,73.26
2023-05-14T01:04:28.736Z,73.50
2023-05-14T01:05:29.128Z,73.76
2023-05-14T01:06:28.722Z,74.94
2023-05-14T01:07:28.671Z,73.11
2023-05-14T01:08:28.702Z,74.95
2023-05-14T01:09:28.712Z,76.00
2023-05-14T01:10:28.673Z,72.51
2023-05-14T01:11:28.655Z,75.35
2023-05-14T01:12:28.685Z,74.17
2023-05-14T01:13:28.693Z,74.41
2023-05-14T01:14:28.708Z,75.30
2023-05-14T01:15:29.133Z,70.48
2023-05-14T01:16:28.692Z,74.00
2023-05-14T01:17:28.644Z,75.02
2023-05-14T01:18:28.648Z,74.72
2023-05-14T01:19:28.592Z,71.57
2023-05-14T01:20:28.624Z,72.49
2023-05-14T01:21:28.610Z,72.88
2023-05-14T01:22:28.579Z,73.34
2023-05-14T01:23:28.596Z,75.46
2023-05-14T01:24:28.577Z,75.25
2023-05-14T01:25:28.596Z,73.39
2023-05-14T01:26:28.580Z,73.67
2023-05-14T01:27:28.587Z,72.89
2023-05-14T01:28:28.583Z,75.16
2023-05-14T01:29:28.546Z,74.31
2023-05-14T01:30:28.620Z,73.34
2023-05-14T01:31:28.652Z,74.09
2023-05-14T01:32:28.616Z,74.00
2023-05-14T01:33:28.600Z,72.99
2023-05-14T01:34:28.639Z,74.22
2023-05-14T01:35:29.143Z,73.16
2023-05-14T01:36:28.655Z,72.76
2023-05-14T01:37:28.678Z,75.78
2023-05-14T01:38:28.689Z,72.98
2023-05-14T01:39:28.703Z,72.81
2023-05-14T01:40:29.117Z,74.25
2023-05-14T01:41:28.733Z,74.01
2023-05-14T01:42:28.723Z,74.40
2023-05-14T01:43:28.849Z,73.48
2023-05-14T01:44:28.764Z,72.22
2023-05-14T01:45:28.750Z,74.27
2023-05-14T01:46:28.839Z,73.42
2023-05-14T01:47:28.807Z,73.40
2023-05-14T01:48:28.809Z,72.53
2023-05-14T01:49:29.601Z,72.52
2023-05-14T01:50:29.140Z,70.89
2023-05-14T01:51:28.872Z,69.46
2023-05-14T01:52:28.890Z,72.80
2023-05-14T01:53:28.877Z,74.23
2023-05-14T01:54:29.871Z,74.39
2023-05-14T01:55:29.119Z,71.97
2023-05-14T01:56:28.912Z,74.35
2023-05-14T01:57:28.877Z,74.52
2023-05-14T01:58:28.854Z,72.97
2023-05-14T01:59:33.681Z,72.51
2023-05-14T02:00:28.871Z,72.79
2023-05-14T02:01:28.869Z,72.85
2023-05-14T02:02:28.874Z,73.73
2023-05-14T02:03:28.845Z,72.60
2023-05-14T02:04:28.812Z,72.93
2023-05-14T02:05:29.122Z,71.99
2023-05-14T02:06:28.789Z,70.74
2023-05-14T02:07:28.764Z,74.14
2023-05-14T02:08:28.787Z,70.49
2023-05-14T02:09:28.777Z,70.90
2023-05-14T02:10:28.773Z,72.24
2023-05-14T02:11:28.793Z,71.76
2023-05-14T02:12:28.756Z,71.62
2023-05-14T02:13:28.731Z,71.68
2023-05-14T02:14:28.753Z,71.89
2023-05-14T02:15:29.129Z,71.80
2023-05-14T02:16:28.735Z,70.68
2023-05-14T02:17:28.712Z,70.06
2023-05-14T02:18:28.717Z,70.03
2023-05-14T02:19:28.681Z,71.91
2023-05-14T02:20:29.136Z,71.52
2023-05-14T02:21:29.849Z,69.44
2023-05-14T02:22:28.672Z,69.40
2023-05-14T02:23:40.583Z,71.56
2023-05-14T02:24:29.696Z,71.84
2023-05-14T02:25:29.147Z,71.83
2023-05-14T02:26:28.618Z,72.54
2023-05-14T02:27:28.630Z,70.10
2023-05-14T02:28:28.663Z,70.57
2023-05-14T02:29:28.628Z,73.24
2023-05-14T02:30:28.639Z,69.84
2023-05-14T02:31:28.707Z,70.81
2023-05-14T02:32:29.660Z,69.75
2023-05-14T02:33:28.596Z,70.97
2023-05-14T02:34:29.593Z,71.22
2023-05-14T02:35:28.614Z,71.47
2023-05-14T02:36:28.565Z,71.33
2023-05-14T02:37:28.572Z,71.92
2023-05-14T02:38:28.537Z,70.62
2023-05-14T02:39:28.557Z,74.90
2023-05-14T02:40:28.646Z,70.75
2023-05-14T02:41:28.521Z,68.27
2023-05-14T02:42:28.547Z,70.47
2023-05-14T02:43:28.531Z,71.08
2023-05-14T02:44:28.531Z,69.92
2023-05-14T02:45:28.510Z,70.09
2023-05-14T02:46:28.503Z,70.67
2023-05-14T02:47:28.502Z,70.27
2023-05-14T02:48:28.480Z,70.23
2023-05-14T02:49:28.456Z,69.04
2023-05-14T02:50:28.460Z,70.05
2023-05-14T02:51:28.486Z,70.92
2023-05-14T02:52:28.472Z,70.46
2023-05-14T02:53:28.470Z,72.10
2023-05-14T02:54:28.442Z,70.53
2023-05-14T02:55:28.648Z,69.91
2023-05-14T02:56:28.452Z,70.39
2023-05-14T02:57:28.599Z,72.74
2023-05-14T02:58:28.666Z,70.94
2023-05-14T02:59:28.373Z,69.74
2023-05-14T03:00:28.377Z,69.15
2023-05-14T03:01:28.572Z,70.13
2023-05-14T03:02:28.490Z,70.31
2023-05-14T03:03:28.405Z,69.40
2023-05-14T03:04:28.394Z,71.00
2023-05-14T03:05:28.408Z,71.45
2023-05-14T03:06:28.411Z,72.33
2023-05-14T03:07:28.414Z,71.16
2023-05-14T03:08:28.438Z,71.04
2023-05-14T03:09:28.445Z,68.09
2023-05-14T03:10:28.462Z,71.41
2023-05-14T03:11:28.464Z,69.00
2023-05-14T03:12:28.485Z,67.34
2023-05-14T03:13:28.485Z,68.23
2023-05-14T03:14:28.545Z,65.09
2023-05-14T03:15:28.532Z,70.57
2023-05-14T03:16:28.693Z,67.76
2023-05-14T03:17:28.593Z,70.46
2023-05-14T03:18:28.573Z,72.34
2023-05-14T03:19:28.558Z,66.93
2023-05-14T03:20:28.671Z,68.61
2023-05-14T03:21:28.620Z,70.41
2023-05-14T03:22:28.618Z,70.64
2023-05-14T03:23:28.629Z,68.16
2023-05-14T03:24:28.644Z,69.45
2023-05-14T03:25:29.159Z,69.64
2023-05-14T03:26:28.653Z,68.44
2023-05-14T03:27:28.723Z,68.56
2023-05-14T03:28:28.734Z,68.35
2023-05-14T03:29:28.740Z,70.86
2023-05-14T03:30:28.781Z,70.84
2023-05-14T03:31:28.713Z,69.48
2023-05-14T03:32:28.831Z,70.71
2023-05-14T03:33:28.778Z,67.49
2023-05-14T03:34:28.895Z,68.61
2023-05-14T03:35:29.162Z,67.24
2023-05-14T03:36:28.812Z,66.42
2023-05-14T03:37:28.812Z,68.05
2023-05-14T03:38:28.862Z,67.47
2023-05-14T03:39:28.866Z,66.63
2023-05-14T03:40:28.871Z,65.62
2023-05-14T03:41:29.185Z,68.42
2023-05-14T03:42:28.899Z,68.96
2023-05-14T03:43:28.896Z,67.82
2023-05-14T03:44:28.941Z,67.84
2023-05-14T03:45:28.948Z,66.87
2023-05-14T03:46:29.678Z,67.44
2023-05-14T03:47:29.045Z,68.51
2023-05-14T03:48:29.075Z,68.82
2023-05-14T03:49:29.039Z,65.64
2023-05-14T03:50:29.029Z,66.18
2023-05-14T03:51:29.177Z,68.15
2023-05-14T03:52:29.052Z,68.02
2023-05-14T03:53:29.080Z,69.79
2023-05-14T03:54:29.086Z,68.72
2023-05-14T03:55:29.096Z,71.37
2023-05-14T03:56:29.186Z,68.86
2023-05-14T03:57:29.101Z,65.00
2023-05-14T03:58:29.149Z,66.27
2023-05-14T03:59:29.141Z,68.57
2023-05-14T04:00:29.151Z,69.04
2023-05-14T04:01:29.674Z,66.64
2023-05-14T04:02:29.208Z,67.22
2023-05-14T04:03:29.275Z,67.98
2023-05-14T04:04:29.244Z,67.69
2023-05-14T04:05:29.240Z,68.79
2023-05-14T04:06:29.258Z,67.31
2023-05-14T04:07:29.255Z,67.81
2023-05-14T04:08:29.321Z,68.01
2023-05-14T04:09:29.323Z,69.29
2023-05-14T04:10:29.335Z,66.99
2023-05-14T04:11:29.684Z,67.41
2023-05-14T04:12:29.364Z,66.74
2023-05-14T04:13:29.393Z,65.42
2023-05-14T04:14:29.404Z,67.92
2023-05-14T04:15:29.433Z,67.20
2023-05-14T04:16:29.494Z,68.17
2023-05-14T04:17:29.505Z,67.12
2023-05-14T04:18:29.540Z,67.49
2023-05-14T04:19:29.525Z,67.55
2023-05-14T04:20:29.543Z,69.61
2023-05-14T04:21:29.671Z,65.42
2023-05-14T04:22:29.560Z,67.04
2023-05-14T04:23:29.559Z,64.64
2023-05-14T04:24:29.597Z,66.02
2023-05-14T04:25:29.606Z,65.39
2023-05-14T04:26:29.695Z,67.18
2023-05-14T04:27:29.658Z,68.10
2023-05-14T04:28:29.668Z,69.06
2023-05-14T04:29:29.668Z,66.66
2023-05-14T04:30:29.734Z,64.99
2023-05-14T04:31:29.719Z,68.77
2023-05-14T04:32:29.750Z,66.24
2023-05-14T04:33:29.752Z,69.50
2023-05-14T04:34:29.804Z,68.71
2023-05-14T04:35:29.751Z,66.33
2023-05-14T04:36:29.817Z,65.97
2023-05-14T04:37:29.818Z,66.89
2023-05-14T04:38:29.834Z,64.16
2023-05-14T04:39:29.887Z,64.02
2023-05-14T04:40:29.866Z,64.44
2023-05-14T04:41:29.905Z,62.00
2023-05-14T04:42:29.950Z,65.77
2023-05-14T04:43:29.978Z,63.49
2023-05-14T04:44:29.931Z,64.93
2023-05-14T04:45:30.569Z,63.32
2023-05-14T04:46:30.173Z,64.52
2023-05-14T04:47:30.038Z,63.81
2023-05-14T04:48:30.034Z,64.22
2023-05-14T04:49:30.080Z,61.75
2023-05-14T04:50:30.075Z,62.51
2023-05-14T04:51:30.235Z,65.59
2023-05-14T04:52:30.105Z,63.41
2023-05-14T04:53:30.113Z,63.60
2023-05-14T04:54:30.217Z,65.70
2023-05-14T04:55:30.195Z,63.18
2023-05-14T04:56:30.674Z,64.81
2023-05-14T04:57:30.192Z,63.00
2023-05-14T04:58:31.638Z,65.88
2023-05-14T04:59:30.242Z,68.80
2023-05-14T05:00:30.223Z,66.21
2023-05-14T05:01:30.742Z,65.53
2023-05-14T05:02:30.238Z,65.72
2023-05-14T05:03:30.239Z,65.63
2023-05-14T05:04:30.181Z,65.34
2023-05-14T05:05:30.217Z,65.79
2023-05-14T05:06:30.193Z,65.64
2023-05-14T05:07:30.163Z,63.68
2023-05-14T05:08:30.164Z,61.66
2023-05-14T05:09:30.162Z,63.99
2023-05-14T05:10:30.159Z,63.50
2023-05-14T05:11:30.162Z,61.98
2023-05-14T05:12:30.162Z,64.42
2023-05-14T05:13:30.135Z,63.77
2023-05-14T05:14:30.126Z,63.82
2023-05-14T05:15:30.131Z,60.75
2023-05-14T05:16:30.230Z,61.89
2023-05-14T05:17:30.159Z,63.75
2023-05-14T05:18:30.145Z,63.04
2023-05-14T05:19:42.323Z,64.62
2023-05-14T05:20:31.106Z,64.95
2023-05-14T05:21:30.120Z,65.20
2023-05-14T05:22:30.090Z,64.39
2023-05-14T05:23:30.084Z,64.74
2023-05-14T05:24:30.059Z,61.77
2023-05-14T05:25:30.081Z,64.56
2023-05-14T05:26:30.053Z,64.32
2023-05-14T05:27:30.036Z,62.82
2023-05-14T05:28:30.028Z,62.27
2023-05-14T05:29:30.041Z,62.55
2023-05-14T05:30:30.029Z,63.43
2023-05-14T05:31:30.063Z,62.86
2023-05-14T05:32:30.071Z,60.85
2023-05-14T05:33:30.038Z,59.64
2023-05-14T05:34:29.979Z,61.47
2023-05-14T05:35:30.000Z,61.62
2023-05-14T05:36:29.964Z,61.07
2023-05-14T05:37:29.947Z,62.11
2023-05-14T05:38:29.952Z,62.03
2023-05-14T05:39:29.980Z,60.21
2023-05-14T05:40:29.961Z,60.75
2023-05-14T05:41:30.017Z,61.93
2023-05-14T05:42:29.988Z,62.91
2023-05-14T05:43:30.011Z,63.67
2023-05-14T05:44:30.063Z,64.46
2023-05-14T05:45:30.077Z,62.33
2023-05-14T05:46:30.096Z,63.66
2023-05-14T05:47:30.170Z,61.65
2023-05-14T05:48:30.140Z,59.68
2023-05-14T05:49:30.148Z,59.50
2023-05-14T05:50:30.156Z,59.06
2023-05-14T05:51:30.181Z,59.05
2023-05-14T05:52:30.208Z,57.97
2023-05-14T05:53:30.201Z,60.79
2023-05-14T05:54:30.261Z,61.89
2023-05-14T05:55:30.240Z,60.16
2023-05-14T05:56:30.274Z,61.46
2023-05-14T05:57:30.329Z,61.68
2023-05-14T05:58:30.316Z,59.25
2023-05-14T05:59:30.374Z,61.60
2023-05-14T06:00:30.374Z,60.67
2023-05-14T06:01:30.394Z,58.55
2023-05-14T06:02:30.490Z,59.80
2023-05-14T06:03:30.454Z,62.82
2023-05-14T06:04:30.479Z,61.67
2023-05-14T06:05:30.596Z,60.17
2023-05-14T06:06:30.727Z,60.21
2023-05-14T06:07:30.553Z,59.46
2023-05-14T06:08:30.566Z,57.57
2023-05-14T06:09:30.614Z,59.94
2023-05-14T06:10:30.605Z,61.11
2023-05-14T06:11:30.614Z,61.43
2023-05-14T06:12:30.663Z,61.15
2023-05-14T06:13:30.664Z,63.51
2023-05-14T06:14:30.685Z,62.36
2023-05-14T06:15:30.722Z,59.31
2023-05-14T06:16:30.756Z,58.86
2023-05-14T06:17:30.803Z,62.46
2023-05-14T06:18:30.818Z,60.76
2023-05-14T06:19:30.778Z,60.04
2023-05-14T06:20:30.824Z,59.32
2023-05-14T06:21:30.887Z,61.73
2023-05-14T06:22:30.833Z,60.26
2023-05-14T06:23:30.886Z,58.34
2023-05-14T06:24:30.891Z,60.29
2023-05-14T06:25:30.943Z,58.07
2023-05-14T06:26:30.934Z,57.52
2023-05-14T06:27:30.959Z,58.44
2023-05-14T06:28:30.995Z,57.10
2023-05-14T06:29:31.036Z,60.23
2023-05-14T06:30:31.053Z,59.19
2023-05-14T06:31:31.116Z,60.04
2023-05-14T06:32:31.138Z,61.06
2023-05-14T06:33:31.351Z,60.64
2023-05-14T06:34:31.158Z,60.35
2023-05-14T06:35:31.161Z,61.54
2023-05-14T06:36:31.209Z,60.55
2023-05-14T06:37:31.215Z,60.98
2023-05-14T06:38:31.238Z,59.59
2023-05-14T06:39:31.285Z,57.79
2023-05-14T06:40:31.292Z,57.11
2023-05-14T06:41:31.314Z,59.84
2023-05-14T06:42:31.316Z,59.54
2023-05-14T06:43:31.334Z,57.67
2023-05-14T06:44:31.366Z,59.19
2023-05-14T06:45:33.183Z,60.00
2023-05-14T06:46:31.719Z,59.52
2023-05-14T06:47:31.439Z,61.10
2023-05-14T06:48:31.513Z,58.78
2023-05-14T06:49:31.491Z,59.07
2023-05-14T06:50:31.506Z,60.42
2023-05-14T06:51:31.533Z,61.75
2023-05-14T06:52:31.556Z,59.92
2023-05-14T06:53:31.567Z,60.08
2023-05-14T06:54:31.609Z,57.99
2023-05-14T06:55:31.626Z,60.73
2023-05-14T06:56:31.662Z,59.24
2023-05-14T06:57:31.664Z,58.94
2023-05-14T06:58:31.730Z,58.16
2023-05-14T06:59:31.713Z,59.33
2023-05-14T07:00:31.771Z,57.75
2023-05-14T07:01:32.270Z,60.03
2023-05-14T07:02:31.810Z,56.64
2023-05-14T07:03:31.821Z,58.94
2023-05-14T07:04:31.885Z,58.59
2023-05-14T07:05:31.870Z,56.82
2023-05-14T07:06:31.906Z,54.68
2023-05-14T07:07:31.930Z,58.64
2023-05-14T07:08:31.954Z,57.87
2023-05-14T07:09:31.965Z,57.92
2023-05-14T07:10:31.997Z,58.90
2023-05-14T07:11:32.004Z,57.96
2023-05-14T07:12:32.021Z,58.21
2023-05-14T07:13:32.064Z,58.24
2023-05-14T07:14:32.059Z,58.81
2023-05-14T07:15:32.080Z,58.92
2023-05-14T07:16:32.163Z,57.41
2023-05-14T07:17:32.121Z,58.42
2023-05-14T07:18:32.160Z,58.46
2023-05-14T07:19:32.143Z,59.06
2023-05-14T07:20:32.228Z,59.38
2023-05-14T07:21:32.209Z,57.57
2023-05-14T07:22:32.212Z,58.53
2023-05-14T07:23:32.237Z,59.38
2023-05-14T07:24:32.266Z,58.28
2023-05-14T07:25:32.312Z,58.98
2023-05-14T07:26:32.355Z,55.86
2023-05-14T07:27:32.369Z,58.54
2023-05-14T07:28:32.377Z,58.44
2023-05-14T07:29:32.388Z,58.57
2023-05-14T07:30:32.409Z,56.65
2023-05-14T07:31:32.512Z,57.37
2023-05-14T07:32:32.480Z,58.28
2023-05-14T07:33:32.475Z,58.24
2023-05-14T07:34:32.578Z,59.61
2023-05-14T07:35:32.519Z,59.23
2023-05-14T07:36:32.520Z,58.48
2023-05-14T07:37:32.531Z,58.40
2023-05-14T07:38:32.561Z,58.56
2023-05-14T07:39:32.586Z,58.50
2023-05-14T07:40:32.609Z,57.40
2023-05-14T07:41:32.590Z,60.07
2023-05-14T07:42:36.490Z,57.52
2023-05-14T07:43:32.608Z,57.68
2023-05-14T07:44:32.578Z,58.13
2023-05-14T07:45:32.596Z,58.23
2023-05-14T07:46:32.592Z,57.35
2023-05-14T07:47:32.813Z,59.30
2023-05-14T07:48:32.670Z,59.28
2023-05-14T07:49:32.549Z,58.32
2023-05-14T07:50:32.646Z,57.04
2023-05-14T07:51:32.743Z,56.64
2023-05-14T07:52:32.547Z,60.57
2023-05-14T07:53:32.533Z,59.39
2023-05-14T07:54:32.547Z,57.10
2023-05-14T07:55:32.518Z,57.55
2023-05-14T07:56:32.511Z,58.30
2023-05-14T07:57:32.510Z,58.14
2023-05-14T07:58:32.508Z,59.21
2023-05-14T07:59:32.517Z,59.02
2023-05-14T08:00:32.494Z,58.44
2023-05-14T08:01:32.757Z,57.56
2023-05-14T08:02:32.565Z,58.26
2023-05-14T08:03:32.629Z,58.79
2023-05-14T08:04:32.505Z,59.22
2023-05-14T08:05:32.468Z,60.76
2023-05-14T08:06:32.457Z,57.63
2023-05-14T08:07:32.454Z,55.59
2023-05-14T08:08:32.407Z,55.97
2023-05-14T08:09:32.400Z,58.45
2023-05-14T08:10:32.445Z,60.07
2023-05-14T08:11:32.406Z,59.69
2023-05-14T08:12:32.419Z,57.27
2023-05-14T08:13:32.372Z,57.83
2023-05-14T08:14:32.434Z,57.75
2023-05-14T08:15:32.386Z,60.44
2023-05-14T08:16:32.397Z,55.82
2023-05-14T08:17:32.442Z,60.37
2023-05-14T08:18:32.369Z,55.26
2023-05-14T08:19:32.404Z,59.11
2023-05-14T08:20:32.437Z,60.30
2023-05-14T08:21:32.442Z,58.70
2023-05-14T08:22:32.425Z,55.64
2023-05-14T08:23:32.446Z,58.96
2023-05-14T08:24:32.539Z,58.01
2023-05-14T08:25:32.470Z,56.11
2023-05-14T08:26:32.470Z,59.01
2023-05-14T08:27:32.752Z,60.56
2023-05-14T08:28:32.503Z,57.36
2023-05-14T08:29:32.547Z,58.61
2023-05-14T08:30:32.570Z,58.45
2023-05-14T08:31:32.623Z,59.09
2023-05-14T08:32:32.624Z,60.50
2023-05-14T08:33:32.580Z,59.07
2023-05-14T08:34:32.629Z,59.05
2023-05-14T08:35:32.650Z,58.85
2023-05-14T08:36:32.652Z,58.64
2023-05-14T08:37:32.656Z,59.74
2023-05-14T08:38:32.652Z,56.04
2023-05-14T08:39:32.691Z,59.34
2023-05-14T08:40:32.675Z,58.26
2023-05-14T08:41:32.678Z,57.26
2023-05-14T08:42:32.784Z,60.23
2023-05-14T08:43:32.743Z,57.59
2023-05-14T08:44:32.815Z,59.53
2023-05-14T08:45:32.774Z,56.43
2023-05-14T08:46:32.764Z,59.22
2023-05-14T08:47:32.837Z,58.98
2023-05-14T08:48:32.922Z,58.53
2023-05-14T08:49:32.796Z,56.68
2023-05-14T08:50:32.838Z,57.16
2023-05-14T08:51:32.854Z,60.06
2023-05-14T08:52:32.857Z,57.28
2023-05-14T08:53:32.858Z,53.86
2023-05-14T08:54:32.884Z,51.48
2023-05-14T08:55:32.901Z,55.97
2023-05-14T08:56:32.891Z,56.00
2023-05-14T08:57:32.909Z,57.54
2023-05-14T08:58:32.951Z,58.88
2023-05-14T08:59:32.953Z,56.87
2023-05-14T09:00:32.950Z,56.69
2023-05-14T09:01:33.011Z,59.48
2023-05-14T09:02:33.297Z,58.21
2023-05-14T09:03:33.088Z,58.37
2023-05-14T09:04:33.006Z,58.58
2023-05-14T09:05:33.034Z,57.92
2023-05-14T09:06:33.031Z,58.15
2023-05-14T09:07:33.074Z,54.43
2023-05-14T09:08:33.053Z,59.05
2023-05-14T09:09:33.056Z,58.11
2023-05-14T09:10:33.093Z,56.63
2023-05-14T09:11:33.094Z,58.00
2023-05-14T09:12:33.095Z,54.79
2023-05-14T09:13:33.112Z,58.99
2023-05-14T09:14:33.224Z,56.33
2023-05-14T09:15:33.189Z,60.43
2023-05-14T09:16:33.185Z,58.48
2023-05-14T09:17:33.181Z,57.98
2023-05-14T09:18:33.172Z,58.61
2023-05-14T09:19:33.277Z,59.64
2023-05-14T09:20:33.179Z,59.05
2023-05-14T09:21:33.643Z,58.56
2023-05-14T09:22:33.278Z,60.16
2023-05-14T09:23:33.240Z,57.72
2023-05-14T09:24:33.275Z,61.17
2023-05-14T09:25:33.257Z,58.42
2023-05-14T09:26:33.305Z,58.20
2023-05-14T09:27:33.299Z,62.35
2023-05-14T09:28:33.310Z,61.15
2023-05-14T09:29:33.329Z,58.01
2023-05-14T09:30:33.347Z,60.11
2023-05-14T09:31:33.446Z,62.88
2023-05-14T09:32:33.380Z,60.83
2023-05-14T09:33:33.376Z,59.49
2023-05-14T09:34:33.439Z,58.41
2023-05-14T09:35:33.408Z,58.50
2023-05-14T09:36:33.432Z,59.36
2023-05-14T09:37:33.462Z,59.24
2023-05-14T09:38:33.437Z,61.92
2023-05-14T09:39:33.470Z,54.76
2023-05-14T09:40:33.462Z,57.36
2023-05-14T09:41:33.496Z,57.06
2023-05-14T09:42:33.746Z,61.17
2023-05-14T09:43:33.525Z,60.34
2023-05-14T09:44:33.581Z,59.01
2023-05-14T09:45:33.545Z,59.79
2023-05-14T09:46:33.554Z,57.93
2023-05-14T09:47:33.672Z,60.04
2023-05-14T09:48:33.629Z,58.08
2023-05-14T09:49:33.600Z,60.26
2023-05-14T09:50:33.589Z,59.47
2023-05-14T09:51:33.603Z,58.81
2023-05-14T09:52:33.660Z,62.69
2023-05-14T09:53:33.648Z,59.83
2023-05-14T09:54:33.715Z,59.07
2023-05-14T09:55:33.699Z,60.86
2023-05-14T09:56:33.684Z,59.65
2023-05-14T09:57:33.779Z,61.26
2023-05-14T09:58:33.732Z,59.18
2023-05-14T09:59:33.754Z,60.28
2023-05-14T10:00:33.770Z,61.84
2023-05-14T10:01:33.805Z,60.98
2023-05-14T10:02:34.311Z,58.96
2023-05-14T10:03:33.818Z,58.44
2023-05-14T10:04:33.921Z,59.70
2023-05-14T10:05:33.849Z,59.38
2023-05-14T10:06:33.869Z,60.46
2023-05-14T10:07:33.877Z,59.51
2023-05-14T10:08:33.899Z,59.36
2023-05-14T10:09:33.877Z,59.95
2023-05-14T10:10:33.922Z,58.67
2023-05-14T10:11:33.921Z,58.78
2023-05-14T10:12:33.967Z,60.38
2023-05-14T10:13:33.970Z,62.61
2023-05-14T10:14:34.053Z,61.10
2023-05-14T10:15:33.984Z,60.95
2023-05-14T10:16:33.991Z,59.48
2023-05-14T10:17:34.051Z,60.40
2023-05-14T10:18:34.112Z,58.68
2023-05-14T10:19:34.081Z,58.93
2023-05-14T10:20:34.068Z,59.96
2023-05-14T10:21:34.068Z,60.34
2023-05-14T10:22:34.106Z,61.23
2023-05-14T10:23:34.102Z,58.73
2023-05-14T10:24:34.152Z,60.06
2023-05-14T10:25:34.172Z,59.56
2023-05-14T10:26:34.162Z,56.74
2023-05-14T10:27:34.198Z,59.92
2023-05-14T10:28:34.188Z,58.15
2023-05-14T10:29:34.216Z,61.60
2023-05-14T10:30:34.233Z,56.47
2023-05-14T10:31:34.297Z,58.37
2023-05-14T10:32:34.473Z,57.35
2023-05-14T10:33:34.285Z,59.20
2023-05-14T10:34:34.294Z,57.46
2023-05-14T10:35:34.337Z,62.52
2023-05-14T10:36:34.354Z,62.29
2023-05-14T10:37:34.364Z,59.82
2023-05-14T10:38:34.351Z,58.30
2023-05-14T10:39:34.360Z,60.44
2023-05-14T10:40:34.400Z,59.70
2023-05-14T10:41:34.415Z,59.41
2023-05-14T10:42:34.431Z,59.33
2023-05-14T10:43:34.443Z,58.34
2023-05-14T10:44:34.436Z,58.59
2023-05-14T10:45:34.467Z,62.10
2023-05-14T10:46:34.533Z,61.59
2023-05-14T10:47:34.846Z,60.75
2023-05-14T10:48:34.527Z,62.19
2023-05-14T10:49:42.736Z,61.99
2023-05-14T10:50:35.525Z,62.07
2023-05-14T10:51:34.666Z,61.60
2023-05-14T10:52:34.529Z,61.09
2023-05-14T10:53:34.557Z,62.65
2023-05-14T10:54:34.505Z,59.92
2023-05-14T10:55:34.486Z,61.65
2023-05-14T10:56:34.471Z,59.90
2023-05-14T10:57:34.805Z,63.97
2023-05-14T10:58:34.508Z,61.42
2023-05-14T10:59:34.445Z,61.51
2023-05-14T11:00:34.442Z,61.49
2023-05-14T11:01:34.483Z,63.47
2023-05-14T11:02:34.508Z,58.99
2023-05-14T11:03:34.466Z,57.40
2023-05-14T11:04:34.426Z,58.05
2023-05-14T11:05:34.458Z,56.08
2023-05-14T11:06:34.422Z,56.45
2023-05-14T11:07:34.426Z,60.94
2023-05-14T11:08:34.392Z,58.69
2023-05-14T11:09:34.398Z,59.14
2023-05-14T11:10:34.371Z,61.20
2023-05-14T11:11:34.388Z,58.39
2023-05-14T11:12:34.420Z,64.18
2023-05-14T11:13:34.378Z,60.20
2023-05-14T11:14:34.381Z,63.46
2023-05-14T11:15:34.383Z,59.42
2023-05-14T11:16:34.369Z,63.58
2023-05-14T11:17:34.839Z,63.52
2023-05-14T11:18:34.429Z,58.72
2023-05-14T11:19:34.419Z,62.40
2023-05-14T11:20:34.414Z,62.39
2023-05-14T11:21:34.457Z,59.32
2023-05-14T11:22:34.804Z,60.64
2023-05-14T11:23:34.434Z,62.16
2023-05-14T11:24:34.478Z,59.45
2023-05-14T11:25:34.484Z,59.85
2023-05-14T11:26:34.556Z,55.52
2023-05-14T11:27:34.534Z,59.82
2023-05-14T11:28:34.553Z,62.21
2023-05-14T11:29:34.553Z,58.65
2023-05-14T11:30:34.567Z,58.95
2023-05-14T11:31:34.605Z,62.58
2023-05-14T11:32:34.841Z,60.49
2023-05-14T11:33:34.611Z,60.87
2023-05-14T11:34:34.621Z,62.08
2023-05-14T11:35:34.642Z,61.43
2023-05-14T11:36:34.649Z,60.64
2023-05-14T11:37:34.725Z,64.52
2023-05-14T11:38:34.740Z,61.63
2023-05-14T11:39:34.702Z,61.83
2023-05-14T11:40:34.716Z,56.93
2023-05-14T11:41:34.768Z,60.61
2023-05-14T11:42:34.844Z,59.50
2023-05-14T11:43:34.798Z,61.98
2023-05-14T11:44:34.786Z,60.65
2023-05-14T11:45:34.803Z,59.30
2023-05-14T11:46:34.915Z,61.07
2023-05-14T11:47:35.336Z,64.19
2023-05-14T11:48:34.873Z,61.87
2023-05-14T11:49:34.874Z,63.07
2023-05-14T11:50:35.836Z,61.94
2023-05-14T11:51:34.919Z,61.96
2023-05-14T11:52:35.328Z,61.54
2023-05-14T11:53:34.959Z,60.49
2023-05-14T11:54:34.963Z,60.69
2023-05-14T11:55:34.986Z,61.71
2023-05-14T11:56:34.981Z,64.74
2023-05-14T11:57:35.006Z,61.17
2023-05-14T11:58:35.076Z,60.27
2023-05-14T11:59:35.020Z,60.03
2023-05-14T12:00:35.023Z,61.55
2023-05-14T12:01:35.075Z,62.11
2023-05-14T12:02:35.220Z,61.73
2023-05-14T12:03:35.302Z,61.44
2023-05-14T12:04:35.162Z,59.92
2023-05-14T12:05:35.140Z,60.11
2023-05-14T12:06:35.168Z,62.94
2023-05-14T12:07:35.162Z,61.31
2023-05-14T12:08:35.161Z,62.08
2023-05-14T12:09:35.209Z,59.55
2023-05-14T12:10:35.203Z,58.89
2023-05-14T12:11:35.236Z,60.74
2023-05-14T12:12:35.262Z,59.42
2023-05-14T12:13:35.264Z,60.27
2023-05-14T12:14:35.258Z,60.94
2023-05-14T12:15:35.278Z,60.92
2023-05-14T12:16:38.244Z,60.19
2023-05-14T12:17:35.337Z,63.92
2023-05-14T12:18:35.317Z,60.21
2023-05-14T12:19:35.279Z,60.22
2023-05-14T12:20:35.293Z,59.95
2023-05-14T12:21:35.265Z,57.27
2023-05-14T12:22:37.054Z,62.32
2023-05-14T12:23:35.329Z,62.38
2023-05-14T12:24:35.246Z,61.66
2023-05-14T12:25:35.249Z,61.82
2023-05-14T12:26:35.213Z,61.77
2023-05-14T12:27:35.243Z,62.02
2023-05-14T12:28:38.067Z,58.66
2023-05-14T12:29:35.219Z,64.07
2023-05-14T12:30:35.283Z,59.21
2023-05-14T12:31:35.284Z,61.51
2023-05-14T12:32:35.236Z,59.45
2023-05-14T12:33:35.341Z,62.09
2023-05-14T12:34:37.186Z,59.62
2023-05-14T12:35:35.157Z,59.73
2023-05-14T12:36:35.156Z,59.47
2023-05-14T12:37:35.123Z,59.85
2023-05-14T12:38:35.336Z,61.66
2023-05-14T12:39:35.150Z,59.08
2023-05-14T12:40:35.146Z,63.10
2023-05-14T12:41:35.147Z,60.60
2023-05-14T12:42:35.156Z,58.63
2023-05-14T12:43:35.344Z,61.62
2023-05-14T12:44:35.187Z,61.18
2023-05-14T12:45:35.221Z,58.11
2023-05-14T12:46:35.234Z,58.72
2023-05-14T12:47:35.385Z,61.55
2023-05-14T12:48:35.250Z,58.68
2023-05-14T12:49:35.287Z,59.07
2023-05-14T12:50:35.301Z,59.00
2023-05-14T12:51:35.291Z,56.57
2023-05-14T12:52:38.524Z,56.66